sensor_id;sensor_type;location;lat;lon;timestamp;P1;durP1;ratioP1;P2;durP2;ratioP2
40955;SDS011;26687;48.254;11.454;2024-01-30T00:00:32;12.85;;;9.23;;
40955;SDS011;26687;48.254;11.454;2024-01-30T00:03:32;12.13;;;8.90;;
40955;SDS011;26687;48.254;11.454;2024-01-30T00:06:32;11.43;;;9.38;;
40955;SDS011;26687;48.254;11.454;2024-01-30T00:09:32;11.50;;;9.30;;
40955;SDS011;26687;48.254;11.454;2024-01-30T00:12:33;10.95;;;9.57;;
40955;SDS011;26687;48.254;11.454;2024-01-30T00:15:33;13.77;;;9.82;;
40955;SDS011;26687;48.254;11.454;2024-01-30T00:18:33;10.48;;;9.23;;
40955;SDS011;26687;48.254;11.454;2024-01-30T00:21:33;12.90;;;9.38;;
40955;SDS011;26687;48.254;11.454;2024-01-30T00:24:34;10.63;;;9.13;;
40955;SDS011;26687;48.254;11.454;2024-01-30T00:27:34;11.10;;;8.70;;
40955;SDS011;26687;48.254;11.454;2024-01-30T00:30:34;11.50;;;9.48;;
40955;SDS011;26687;48.254;11.454;2024-01-30T00:33:34;9.95;;;8.95;;
40955;SDS011;26687;48.254;11.454;2024-01-30T00:36:34;10.15;;;8.85;;
40955;SDS011;26687;48.254;11.454;2024-01-30T00:39:35;10.57;;;8.77;;
40955;SDS011;26687;48.254;11.454;2024-01-30T00:42:35;10.57;;;9.10;;
40955;SDS011;26687;48.254;11.454;2024-01-30T00:45:35;10.93;;;8.80;;
40955;SDS011;26687;48.254;11.454;2024-01-30T00:48:35;9.87;;;8.47;;
40955;SDS011;26687;48.254;11.454;2024-01-30T00:51:35;9.38;;;8.32;;
40955;SDS011;26687;48.254;11.454;2024-01-30T00:54:36;11.90;;;8.57;;
40955;SDS011;26687;48.254;11.454;2024-01-30T00:57:36;13.27;;;8.63;;
40955;SDS011;26687;48.254;11.454;2024-01-30T01:00:36;12.67;;;9.27;;
40955;SDS011;26687;48.254;11.454;2024-01-30T01:03:37;12.70;;;9.10;;
40955;SDS011;26687;48.254;11.454;2024-01-30T01:06:37;12.20;;;9.80;;
40955;SDS011;26687;48.254;11.454;2024-01-30T01:09:37;11.77;;;9.47;;
40955;SDS011;26687;48.254;11.454;2024-01-30T01:12:37;11.38;;;10.10;;
40955;SDS011;26687;48.254;11.454;2024-01-30T01:15:37;11.38;;;9.60;;
40955;SDS011;26687;48.254;11.454;2024-01-30T01:18:38;11.70;;;10.05;;
40955;SDS011;26687;48.254;11.454;2024-01-30T01:21:38;11.93;;;10.40;;
40955;SDS011;26687;48.254;11.454;2024-01-30T01:24:38;12.40;;;10.23;;
40955;SDS011;26687;48.254;11.454;2024-01-30T01:27:38;12.30;;;10.32;;
40955;SDS011;26687;48.254;11.454;2024-01-30T01:30:40;13.57;;;10.88;;
40955;SDS011;26687;48.254;11.454;2024-01-30T01:33:41;12.73;;;10.18;;
40955;SDS011;26687;48.254;11.454;2024-01-30T01:36:41;16.23;;;10.95;;
40955;SDS011;26687;48.254;11.454;2024-01-30T01:39:41;14.40;;;10.77;;
40955;SDS011;26687;48.254;11.454;2024-01-30T01:42:41;12.00;;;10.13;;
40955;SDS011;26687;48.254;11.454;2024-01-30T01:45:41;13.20;;;9.73;;
40955;SDS011;26687;48.254;11.454;2024-01-30T01:48:41;12.00;;;9.95;;
40955;SDS011;26687;48.254;11.454;2024-01-30T01:51:43;16.35;;;10.98;;
40955;SDS011;26687;48.254;11.454;2024-01-30T01:54:44;14.60;;;11.07;;
40955;SDS011;26687;48.254;11.454;2024-01-30T01:57:44;13.27;;;10.73;;
40955;SDS011;26687;48.254;11.454;2024-01-30T02:00:45;12.70;;;10.20;;
40955;SDS011;26687;48.254;11.454;2024-01-30T02:03:46;11.52;;;10.32;;
40955;SDS011;26687;48.254;11.454;2024-01-30T02:06:46;11.98;;;10.68;;
40955;SDS011;26687;48.254;11.454;2024-01-30T02:09:46;11.95;;;10.45;;
40955;SDS011;26687;48.254;11.454;2024-01-30T02:12:46;12.90;;;11.32;;
40955;SDS011;26687;48.254;11.454;2024-01-30T02:15:50;13.20;;;11.48;;
40955;SDS011;26687;48.254;11.454;2024-01-30T02:18:50;14.20;;;11.57;;
40955;SDS011;26687;48.254;11.454;2024-01-30T02:21:50;14.15;;;12.23;;
40955;SDS011;26687;48.254;11.454;2024-01-30T02:24:51;13.85;;;11.65;;
40955;SDS011;26687;48.254;11.454;2024-01-30T02:27:51;13.07;;;11.47;;
40955;SDS011;26687;48.254;11.454;2024-01-30T02:30:51;14.40;;;11.43;;
40955;SDS011;26687;48.254;11.454;2024-01-30T02:33:51;15.67;;;12.10;;
40955;SDS011;26687;48.254;11.454;2024-01-30T02:36:51;15.80;;;13.23;;
40955;SDS011;26687;48.254;11.454;2024-01-30T02:39:51;14.43;;;11.57;;
40955;SDS011;26687;48.254;11.454;2024-01-30T02:42:52;13.65;;;11.85;;
40955;SDS011;26687;48.254;11.454;2024-01-30T02:45:52;13.55;;;12.02;;
40955;SDS011;26687;48.254;11.454;2024-01-30T02:48:52;14.43;;;12.25;;
40955;SDS011;26687;48.254;11.454;2024-01-30T02:51:53;13.90;;;12.20;;
40955;SDS011;26687;48.254;11.454;2024-01-30T02:54:53;13.68;;;11.80;;
40955;SDS011;26687;48.254;11.454;2024-01-30T02:57:54;13.00;;;11.70;;
40955;SDS011;26687;48.254;11.454;2024-01-30T03:00:54;15.25;;;12.20;;
40955;SDS011;26687;48.254;11.454;2024-01-30T03:03:54;13.23;;;11.85;;
40955;SDS011;26687;48.254;11.454;2024-01-30T03:06:54;14.98;;;11.73;;
40955;SDS011;26687;48.254;11.454;2024-01-30T03:09:54;14.70;;;12.65;;
40955;SDS011;26687;48.254;11.454;2024-01-30T03:12:55;13.25;;;11.75;;
40955;SDS011;26687;48.254;11.454;2024-01-30T03:15:55;14.10;;;11.83;;
40955;SDS011;26687;48.254;11.454;2024-01-30T03:18:55;14.85;;;11.52;;
40955;SDS011;26687;48.254;11.454;2024-01-30T03:21:56;14.57;;;12.02;;
40955;SDS011;26687;48.254;11.454;2024-01-30T03:24:56;14.05;;;11.60;;
40955;SDS011;26687;48.254;11.454;2024-01-30T03:27:56;13.10;;;11.50;;
40955;SDS011;26687;48.254;11.454;2024-01-30T03:30:56;14.70;;;12.38;;
40955;SDS011;26687;48.254;11.454;2024-01-30T03:33:56;12.25;;;11.05;;
40955;SDS011;26687;48.254;11.454;2024-01-30T03:36:56;14.75;;;12.25;;
40955;SDS011;26687;48.254;11.454;2024-01-30T03:39:57;12.93;;;11.38;;
40955;SDS011;26687;48.254;11.454;2024-01-30T03:42:57;13.50;;;11.73;;
40955;SDS011;26687;48.254;11.454;2024-01-30T03:45:57;14.38;;;11.52;;
40955;SDS011;26687;48.254;11.454;2024-01-30T03:48:58;12.40;;;11.13;;
40955;SDS011;26687;48.254;11.454;2024-01-30T03:51:58;14.10;;;11.25;;
40955;SDS011;26687;48.254;11.454;2024-01-30T03:54:58;13.15;;;11.73;;
40955;SDS011;26687;48.254;11.454;2024-01-30T03:57:58;14.55;;;11.77;;
40955;SDS011;26687;48.254;11.454;2024-01-30T04:00:58;12.83;;;11.50;;
40955;SDS011;26687;48.254;11.454;2024-01-30T04:03:58;12.43;;;11.13;;
40955;SDS011;26687;48.254;11.454;2024-01-30T04:06:59;13.17;;;11.90;;
40955;SDS011;26687;48.254;11.454;2024-01-30T04:09:59;13.68;;;11.88;;
40955;SDS011;26687;48.254;11.454;2024-01-30T04:12:59;12.33;;;11.10;;
40955;SDS011;26687;48.254;11.454;2024-01-30T04:16:00;11.80;;;10.60;;
40955;SDS011;26687;48.254;11.454;2024-01-30T04:19:03;14.55;;;9.82;;
40955;SDS011;26687;48.254;11.454;2024-01-30T04:22:03;13.57;;;10.95;;
40955;SDS011;26687;48.254;11.454;2024-01-30T04:25:03;11.35;;;10.25;;
40955;SDS011;26687;48.254;11.454;2024-01-30T04:28:03;11.23;;;10.02;;
40955;SDS011;26687;48.254;11.454;2024-01-30T04:31:04;10.63;;;9.52;;
40955;SDS011;26687;48.254;11.454;2024-01-30T04:34:04;12.32;;;10.35;;
40955;SDS011;26687;48.254;11.454;2024-01-30T04:37:04;11.65;;;10.55;;
40955;SDS011;26687;48.254;11.454;2024-01-30T04:40:05;11.73;;;10.53;;
40955;SDS011;26687;48.254;11.454;2024-01-30T04:43:05;10.30;;;9.20;;
40955;SDS011;26687;48.254;11.454;2024-01-30T04:46:05;12.75;;;9.85;;
40955;SDS011;26687;48.254;11.454;2024-01-30T04:49:05;13.15;;;9.52;;
40955;SDS011;26687;48.254;11.454;2024-01-30T04:52:08;12.32;;;9.90;;
40955;SDS011;26687;48.254;11.454;2024-01-30T04:55:08;13.93;;;9.35;;
40955;SDS011;26687;48.254;11.454;2024-01-30T04:58:08;13.18;;;9.90;;
40955;SDS011;26687;48.254;11.454;2024-01-30T05:01:08;11.98;;;9.88;;
40955;SDS011;26687;48.254;11.454;2024-01-30T05:04:09;10.65;;;9.55;;
40955;SDS011;26687;48.254;11.454;2024-01-30T05:07:09;10.60;;;9.50;;
40955;SDS011;26687;48.254;11.454;2024-01-30T05:10:09;11.10;;;9.73;;
40955;SDS011;26687;48.254;11.454;2024-01-30T05:13:09;10.55;;;9.50;;
40955;SDS011;26687;48.254;11.454;2024-01-30T05:16:09;12.17;;;9.43;;
40955;SDS011;26687;48.254;11.454;2024-01-30T05:19:10;11.63;;;8.85;;
40955;SDS011;26687;48.254;11.454;2024-01-30T05:22:10;11.38;;;9.65;;
40955;SDS011;26687;48.254;11.454;2024-01-30T05:25:10;10.35;;;9.07;;
40955;SDS011;26687;48.254;11.454;2024-01-30T05:28:11;10.25;;;8.80;;
40955;SDS011;26687;48.254;11.454;2024-01-30T05:31:11;12.52;;;10.40;;
40955;SDS011;26687;48.254;11.454;2024-01-30T05:34:11;11.25;;;9.32;;
40955;SDS011;26687;48.254;11.454;2024-01-30T05:37:11;12.55;;;10.82;;
40955;SDS011;26687;48.254;11.454;2024-01-30T05:40:14;11.45;;;8.75;;
40955;SDS011;26687;48.254;11.454;2024-01-30T05:43:14;9.98;;;8.90;;
40955;SDS011;26687;48.254;11.454;2024-01-30T05:46:14;9.32;;;8.05;;
40955;SDS011;26687;48.254;11.454;2024-01-30T05:49:15;11.63;;;8.30;;
40955;SDS011;26687;48.254;11.454;2024-01-30T05:52:15;9.43;;;8.23;;
40955;SDS011;26687;48.254;11.454;2024-01-30T05:55:16;9.82;;;7.28;;
40955;SDS011;26687;48.254;11.454;2024-01-30T05:58:16;8.73;;;7.22;;
40955;SDS011;26687;48.254;11.454;2024-01-30T06:01:16;8.27;;;6.87;;
40955;SDS011;26687;48.254;11.454;2024-01-30T06:04:16;10.63;;;8.40;;
40955;SDS011;26687;48.254;11.454;2024-01-30T06:07:16;10.02;;;7.63;;
40955;SDS011;26687;48.254;11.454;2024-01-30T06:10:17;9.27;;;7.53;;
40955;SDS011;26687;48.254;11.454;2024-01-30T06:13:17;10.27;;;8.18;;
40955;SDS011;26687;48.254;11.454;2024-01-30T06:16:18;8.27;;;7.07;;
40955;SDS011;26687;48.254;11.454;2024-01-30T06:19:19;8.65;;;7.75;;
40955;SDS011;26687;48.254;11.454;2024-01-30T06:22:19;8.70;;;7.70;;
40955;SDS011;26687;48.254;11.454;2024-01-30T06:25:20;9.13;;;7.30;;
40955;SDS011;26687;48.254;11.454;2024-01-30T06:28:20;9.95;;;8.23;;
40955;SDS011;26687;48.254;11.454;2024-01-30T06:31:20;9.67;;;7.53;;
40955;SDS011;26687;48.254;11.454;2024-01-30T06:34:21;8.70;;;7.75;;
40955;SDS011;26687;48.254;11.454;2024-01-30T06:37:21;10.52;;;7.93;;
40955;SDS011;26687;48.254;11.454;2024-01-30T06:40:21;10.00;;;8.15;;
40955;SDS011;26687;48.254;11.454;2024-01-30T06:43:22;9.30;;;8.05;;
40955;SDS011;26687;48.254;11.454;2024-01-30T06:46:22;11.73;;;7.90;;
40955;SDS011;26687;48.254;11.454;2024-01-30T06:49:22;10.27;;;7.88;;
40955;SDS011;26687;48.254;11.454;2024-01-30T06:52:22;10.02;;;8.45;;
40955;SDS011;26687;48.254;11.454;2024-01-30T06:55:22;9.35;;;7.72;;
40955;SDS011;26687;48.254;11.454;2024-01-30T06:58:22;9.23;;;8.05;;
40955;SDS011;26687;48.254;11.454;2024-01-30T07:01:27;8.80;;;7.90;;
40955;SDS011;26687;48.254;11.454;2024-01-30T07:04:27;12.50;;;7.93;;
40955;SDS011;26687;48.254;11.454;2024-01-30T07:07:27;8.80;;;7.90;;
40955;SDS011;26687;48.254;11.454;2024-01-30T07:10:28;9.73;;;7.72;;
40955;SDS011;26687;48.254;11.454;2024-01-30T07:13:28;9.27;;;7.85;;
40955;SDS011;26687;48.254;11.454;2024-01-30T07:16:29;9.68;;;7.93;;
40955;SDS011;26687;48.254;11.454;2024-01-30T07:19:29;9.63;;;7.40;;
40955;SDS011;26687;48.254;11.454;2024-01-30T07:22:29;9.32;;;8.43;;
40955;SDS011;26687;48.254;11.454;2024-01-30T07:25:30;10.10;;;8.32;;
40955;SDS011;26687;48.254;11.454;2024-01-30T07:28:30;10.15;;;7.65;;
40955;SDS011;26687;48.254;11.454;2024-01-30T07:31:31;10.53;;;8.07;;
40955;SDS011;26687;48.254;11.454;2024-01-30T07:34:31;10.98;;;8.60;;
40955;SDS011;26687;48.254;11.454;2024-01-30T07:37:31;9.63;;;8.20;;
40955;SDS011;26687;48.254;11.454;2024-01-30T07:40:31;10.53;;;8.37;;
40955;SDS011;26687;48.254;11.454;2024-01-30T07:43:33;9.50;;;7.63;;
40955;SDS011;26687;48.254;11.454;2024-01-30T07:46:33;9.57;;;8.27;;
40955;SDS011;26687;48.254;11.454;2024-01-30T07:49:34;9.23;;;7.70;;
40955;SDS011;26687;48.254;11.454;2024-01-30T07:52:34;9.23;;;8.07;;
40955;SDS011;26687;48.254;11.454;2024-01-30T07:55:34;9.30;;;7.70;;
40955;SDS011;26687;48.254;11.454;2024-01-30T07:58:34;10.98;;;7.50;;
40955;SDS011;26687;48.254;11.454;2024-01-30T08:01:34;9.88;;;7.63;;
40955;SDS011;26687;48.254;11.454;2024-01-30T08:04:34;10.73;;;7.57;;
40955;SDS011;26687;48.254;11.454;2024-01-30T08:07:35;11.65;;;7.93;;
40955;SDS011;26687;48.254;11.454;2024-01-30T08:10:35;11.27;;;7.40;;
40955;SDS011;26687;48.254;11.454;2024-01-30T08:13:35;11.23;;;8.02;;
40955;SDS011;26687;48.254;11.454;2024-01-30T08:16:35;9.85;;;7.22;;
40955;SDS011;26687;48.254;11.454;2024-01-30T08:19:35;10.07;;;7.97;;
40955;SDS011;26687;48.254;11.454;2024-01-30T08:22:37;8.88;;;7.97;;
40955;SDS011;26687;48.254;11.454;2024-01-30T08:25:37;11.75;;;8.50;;
40955;SDS011;26687;48.254;11.454;2024-01-30T08:28:38;8.65;;;7.65;;
40955;SDS011;26687;48.254;11.454;2024-01-30T08:31:38;9.75;;;7.93;;
40955;SDS011;26687;48.254;11.454;2024-01-30T08:34:38;9.52;;;8.20;;
40955;SDS011;26687;48.254;11.454;2024-01-30T08:37:38;10.43;;;7.95;;
40955;SDS011;26687;48.254;11.454;2024-01-30T08:40:38;9.35;;;7.97;;
40955;SDS011;26687;48.254;11.454;2024-01-30T08:43:38;8.70;;;7.60;;
40955;SDS011;26687;48.254;11.454;2024-01-30T08:46:39;10.88;;;7.75;;
40955;SDS011;26687;48.254;11.454;2024-01-30T08:49:39;12.03;;;7.73;;
40955;SDS011;26687;48.254;11.454;2024-01-30T08:52:39;10.30;;;7.82;;
40955;SDS011;26687;48.254;11.454;2024-01-30T08:55:39;10.25;;;6.93;;
40955;SDS011;26687;48.254;11.454;2024-01-30T08:58:39;7.53;;;6.35;;
40955;SDS011;26687;48.254;11.454;2024-01-30T09:01:40;8.75;;;6.55;;
40955;SDS011;26687;48.254;11.454;2024-01-30T09:04:40;7.53;;;6.40;;
40955;SDS011;26687;48.254;11.454;2024-01-30T09:07:40;11.53;;;5.90;;
40955;SDS011;26687;48.254;11.454;2024-01-30T09:10:40;8.38;;;6.03;;
40955;SDS011;26687;48.254;11.454;2024-01-30T09:13:41;7.05;;;6.10;;
40955;SDS011;26687;48.254;11.454;2024-01-30T09:16:41;6.28;;;5.00;;
40955;SDS011;26687;48.254;11.454;2024-01-30T09:19:41;5.70;;;4.82;;
40955;SDS011;26687;48.254;11.454;2024-01-30T09:22:41;4.68;;;4.25;;
40955;SDS011;26687;48.254;11.454;2024-01-30T09:25:41;5.23;;;4.50;;
40955;SDS011;26687;48.254;11.454;2024-01-30T09:28:42;5.15;;;4.55;;
40955;SDS011;26687;48.254;11.454;2024-01-30T09:31:43;5.95;;;4.88;;
40955;SDS011;26687;48.254;11.454;2024-01-30T09:34:43;6.30;;;5.70;;
40955;SDS011;26687;48.254;11.454;2024-01-30T09:37:43;6.30;;;5.20;;
40955;SDS011;26687;48.254;11.454;2024-01-30T09:40:44;5.25;;;4.78;;
40955;SDS011;26687;48.254;11.454;2024-01-30T09:43:46;6.28;;;5.18;;
40955;SDS011;26687;48.254;11.454;2024-01-30T09:46:48;4.32;;;3.92;;
40955;SDS011;26687;48.254;11.454;2024-01-30T09:49:49;4.65;;;3.80;;
40955;SDS011;26687;48.254;11.454;2024-01-30T09:52:49;5.65;;;4.70;;
40955;SDS011;26687;48.254;11.454;2024-01-30T09:55:51;8.02;;;6.45;;
40955;SDS011;26687;48.254;11.454;2024-01-30T09:58:51;6.83;;;5.63;;
40955;SDS011;26687;48.254;11.454;2024-01-30T10:01:51;7.22;;;4.90;;
40955;SDS011;26687;48.254;11.454;2024-01-30T10:04:52;7.67;;;4.20;;
40955;SDS011;26687;48.254;11.454;2024-01-30T10:07:52;4.88;;;3.95;;
40955;SDS011;26687;48.254;11.454;2024-01-30T10:10:53;5.38;;;3.63;;
40955;SDS011;26687;48.254;11.454;2024-01-30T10:13:54;5.00;;;3.47;;
40955;SDS011;26687;48.254;11.454;2024-01-30T10:16:55;4.35;;;3.28;;
40955;SDS011;26687;48.254;11.454;2024-01-30T10:19:55;6.63;;;3.70;;
40955;SDS011;26687;48.254;11.454;2024-01-30T10:22:55;7.28;;;3.50;;
40955;SDS011;26687;48.254;11.454;2024-01-30T10:25:56;4.60;;;3.50;;
40955;SDS011;26687;48.254;11.454;2024-01-30T10:28:56;6.35;;;3.75;;
40955;SDS011;26687;48.254;11.454;2024-01-30T10:32:00;4.33;;;3.53;;
40955;SDS011;26687;48.254;11.454;2024-01-30T10:35:01;6.30;;;4.00;;
40955;SDS011;26687;48.254;11.454;2024-01-30T10:38:01;6.03;;;4.35;;
40955;SDS011;26687;48.254;11.454;2024-01-30T10:41:01;9.48;;;4.13;;
40955;SDS011;26687;48.254;11.454;2024-01-30T10:44:02;4.65;;;3.72;;
40955;SDS011;26687;48.254;11.454;2024-01-30T10:47:06;5.38;;;3.40;;
40955;SDS011;26687;48.254;11.454;2024-01-30T10:50:08;3.85;;;3.45;;
40955;SDS011;26687;48.254;11.454;2024-01-30T10:53:08;4.75;;;3.28;;
40955;SDS011;26687;48.254;11.454;2024-01-30T10:56:10;4.05;;;2.90;;
40955;SDS011;26687;48.254;11.454;2024-01-30T10:59:10;5.50;;;3.40;;
40955;SDS011;26687;48.254;11.454;2024-01-30T11:02:11;7.35;;;3.58;;
40955;SDS011;26687;48.254;11.454;2024-01-30T11:05:11;6.22;;;3.28;;
40955;SDS011;26687;48.254;11.454;2024-01-30T11:08:12;5.65;;;2.78;;
40955;SDS011;26687;48.254;11.454;2024-01-30T11:11:13;5.45;;;3.63;;
40955;SDS011;26687;48.254;11.454;2024-01-30T11:14:13;6.27;;;3.40;;
40955;SDS011;26687;48.254;11.454;2024-01-30T11:17:13;5.97;;;3.05;;
40955;SDS011;26687;48.254;11.454;2024-01-30T11:23:16;8.57;;;2.97;;
40955;SDS011;26687;48.254;11.454;2024-01-30T11:26:17;6.80;;;2.70;;
40955;SDS011;26687;48.254;11.454;2024-01-30T11:29:17;3.97;;;2.80;;
40955;SDS011;26687;48.254;11.454;2024-01-30T11:32:22;3.60;;;2.65;;
40955;SDS011;26687;48.254;11.454;2024-01-30T11:35:24;8.30;;;3.15;;
40955;SDS011;26687;48.254;11.454;2024-01-30T11:38:24;5.38;;;2.92;;
40955;SDS011;26687;48.254;11.454;2024-01-30T11:41:25;4.15;;;2.70;;
40955;SDS011;26687;48.254;11.454;2024-01-30T11:44:26;4.53;;;2.50;;
40955;SDS011;26687;48.254;11.454;2024-01-30T11:47:27;4.72;;;2.50;;
40955;SDS011;26687;48.254;11.454;2024-01-30T11:50:27;2.85;;;2.40;;
40955;SDS011;26687;48.254;11.454;2024-01-30T11:53:27;4.63;;;2.60;;
40955;SDS011;26687;48.254;11.454;2024-01-30T11:56:27;6.73;;;3.00;;
40955;SDS011;26687;48.254;11.454;2024-01-30T11:59:28;2.87;;;2.23;;
40955;SDS011;26687;48.254;11.454;2024-01-30T12:02:28;4.88;;;2.25;;
40955;SDS011;26687;48.254;11.454;2024-01-30T12:05:28;3.33;;;2.60;;
40955;SDS011;26687;48.254;11.454;2024-01-30T12:08:28;5.53;;;2.10;;
40955;SDS011;26687;48.254;11.454;2024-01-30T12:11:29;3.77;;;2.83;;
40955;SDS011;26687;48.254;11.454;2024-01-30T12:14:30;3.92;;;2.53;;
40955;SDS011;26687;48.254;11.454;2024-01-30T12:17:30;5.03;;;2.73;;
40955;SDS011;26687;48.254;11.454;2024-01-30T12:20:31;4.03;;;2.78;;
40955;SDS011;26687;48.254;11.454;2024-01-30T12:23:31;3.85;;;2.85;;
40955;SDS011;26687;48.254;11.454;2024-01-30T12:26:31;4.65;;;2.58;;
40955;SDS011;26687;48.254;11.454;2024-01-30T12:29:32;4.18;;;2.45;;
40955;SDS011;26687;48.254;11.454;2024-01-30T12:32:34;4.43;;;2.58;;
40955;SDS011;26687;48.254;11.454;2024-01-30T12:35:34;3.40;;;3.00;;
40955;SDS011;26687;48.254;11.454;2024-01-30T12:38:34;5.18;;;2.50;;
40955;SDS011;26687;48.254;11.454;2024-01-30T12:41:34;5.28;;;2.83;;
40955;SDS011;26687;48.254;11.454;2024-01-30T12:44:35;6.18;;;2.97;;
40955;SDS011;26687;48.254;11.454;2024-01-30T12:47:35;7.10;;;2.80;;
40955;SDS011;26687;48.254;11.454;2024-01-30T12:50:35;2.92;;;2.33;;
40955;SDS011;26687;48.254;11.454;2024-01-30T12:53:35;3.40;;;2.65;;
40955;SDS011;26687;48.254;11.454;2024-01-30T12:56:36;4.28;;;2.45;;
40955;SDS011;26687;48.254;11.454;2024-01-30T12:59:36;2.63;;;2.20;;
40955;SDS011;26687;48.254;11.454;2024-01-30T13:02:36;2.83;;;2.30;;
40955;SDS011;26687;48.254;11.454;2024-01-30T13:05:37;3.17;;;2.30;;
40955;SDS011;26687;48.254;11.454;2024-01-30T13:08:37;2.90;;;2.20;;
40955;SDS011;26687;48.254;11.454;2024-01-30T13:11:37;3.70;;;2.80;;
40955;SDS011;26687;48.254;11.454;2024-01-30T13:14:37;2.88;;;2.53;;
40955;SDS011;26687;48.254;11.454;2024-01-30T13:17:39;4.45;;;3.00;;
40955;SDS011;26687;48.254;11.454;2024-01-30T13:20:39;4.43;;;3.05;;
40955;SDS011;26687;48.254;11.454;2024-01-30T13:23:39;3.30;;;2.72;;
40955;SDS011;26687;48.254;11.454;2024-01-30T13:26:40;4.32;;;2.60;;
40955;SDS011;26687;48.254;11.454;2024-01-30T13:29:40;3.00;;;2.63;;
40955;SDS011;26687;48.254;11.454;2024-01-30T13:32:40;5.68;;;2.70;;
40955;SDS011;26687;48.254;11.454;2024-01-30T13:35:44;5.05;;;2.97;;
40955;SDS011;26687;48.254;11.454;2024-01-30T13:38:44;7.07;;;2.70;;
40955;SDS011;26687;48.254;11.454;2024-01-30T13:41:44;6.10;;;2.47;;
40955;SDS011;26687;48.254;11.454;2024-01-30T13:44:44;2.35;;;2.15;;
40955;SDS011;26687;48.254;11.454;2024-01-30T13:47:44;5.40;;;2.50;;
40955;SDS011;26687;48.254;11.454;2024-01-30T13:50:44;4.03;;;2.28;;
40955;SDS011;26687;48.254;11.454;2024-01-30T13:53:45;2.42;;;2.05;;
40955;SDS011;26687;48.254;11.454;2024-01-30T13:56:46;4.70;;;2.63;;
40955;SDS011;26687;48.254;11.454;2024-01-30T13:59:46;3.30;;;2.53;;
40955;SDS011;26687;48.254;11.454;2024-01-30T14:02:46;5.22;;;2.80;;
40955;SDS011;26687;48.254;11.454;2024-01-30T14:05:46;4.05;;;2.20;;
40955;SDS011;26687;48.254;11.454;2024-01-30T14:08:47;2.97;;;2.10;;
40955;SDS011;26687;48.254;11.454;2024-01-30T14:11:47;3.05;;;2.40;;
40955;SDS011;26687;48.254;11.454;2024-01-30T14:14:47;3.03;;;2.42;;
40955;SDS011;26687;48.254;11.454;2024-01-30T14:17:47;2.60;;;2.20;;
40955;SDS011;26687;48.254;11.454;2024-01-30T14:20:48;2.13;;;1.92;;
40955;SDS011;26687;48.254;11.454;2024-01-30T14:23:48;2.43;;;1.83;;
40955;SDS011;26687;48.254;11.454;2024-01-30T14:26:49;4.30;;;2.20;;
40955;SDS011;26687;48.254;11.454;2024-01-30T14:29:49;8.27;;;2.30;;
40955;SDS011;26687;48.254;11.454;2024-01-30T14:32:49;3.75;;;2.10;;
40955;SDS011;26687;48.254;11.454;2024-01-30T14:35:49;4.35;;;2.63;;
40955;SDS011;26687;48.254;11.454;2024-01-30T14:38:50;2.97;;;2.55;;
40955;SDS011;26687;48.254;11.454;2024-01-30T14:41:51;5.43;;;2.97;;
40955;SDS011;26687;48.254;11.454;2024-01-30T14:44:51;3.70;;;2.40;;
40955;SDS011;26687;48.254;11.454;2024-01-30T14:47:52;5.15;;;2.78;;
40955;SDS011;26687;48.254;11.454;2024-01-30T14:50:52;4.97;;;2.70;;
40955;SDS011;26687;48.254;11.454;2024-01-30T14:53:52;3.95;;;2.97;;
40955;SDS011;26687;48.254;11.454;2024-01-30T14:56:53;4.88;;;3.25;;
40955;SDS011;26687;48.254;11.454;2024-01-30T14:59:53;5.00;;;2.97;;
40955;SDS011;26687;48.254;11.454;2024-01-30T15:02:53;6.18;;;2.78;;
40955;SDS011;26687;48.254;11.454;2024-01-30T15:05:53;4.25;;;3.22;;
40955;SDS011;26687;48.254;11.454;2024-01-30T15:08:54;5.95;;;3.30;;
40955;SDS011;26687;48.254;11.454;2024-01-30T15:11:55;7.32;;;3.60;;
40955;SDS011;26687;48.254;11.454;2024-01-30T15:14:55;7.83;;;3.23;;
40955;SDS011;26687;48.254;11.454;2024-01-30T15:17:55;7.72;;;3.45;;
40955;SDS011;26687;48.254;11.454;2024-01-30T15:20:55;5.93;;;3.75;;
40955;SDS011;26687;48.254;11.454;2024-01-30T15:23:55;9.45;;;3.40;;
40955;SDS011;26687;48.254;11.454;2024-01-30T15:26:55;5.97;;;3.15;;
40955;SDS011;26687;48.254;11.454;2024-01-30T15:29:55;5.38;;;3.40;;
40955;SDS011;26687;48.254;11.454;2024-01-30T15:32:56;7.07;;;3.70;;
40955;SDS011;26687;48.254;11.454;2024-01-30T15:35:56;4.73;;;2.83;;
40955;SDS011;26687;48.254;11.454;2024-01-30T15:38:56;5.53;;;3.60;;
40955;SDS011;26687;48.254;11.454;2024-01-30T15:41:57;5.87;;;3.10;;
40955;SDS011;26687;48.254;11.454;2024-01-30T15:44:58;8.38;;;3.67;;
40955;SDS011;26687;48.254;11.454;2024-01-30T15:47:58;6.10;;;3.45;;
40955;SDS011;26687;48.254;11.454;2024-01-30T15:50:59;5.10;;;3.20;;
40955;SDS011;26687;48.254;11.454;2024-01-30T15:53:59;5.53;;;3.28;;
40955;SDS011;26687;48.254;11.454;2024-01-30T15:56:59;7.40;;;2.75;;
40955;SDS011;26687;48.254;11.454;2024-01-30T15:59:59;4.75;;;3.33;;
40955;SDS011;26687;48.254;11.454;2024-01-30T16:02:59;5.25;;;3.05;;
40955;SDS011;26687;48.254;11.454;2024-01-30T16:06:00;6.00;;;3.00;;
40955;SDS011;26687;48.254;11.454;2024-01-30T16:09:00;5.57;;;3.30;;
40955;SDS011;26687;48.254;11.454;2024-01-30T16:12:00;4.57;;;2.90;;
40955;SDS011;26687;48.254;11.454;2024-01-30T16:15:01;4.50;;;3.08;;
40955;SDS011;26687;48.254;11.454;2024-01-30T16:18:01;5.10;;;3.15;;
40955;SDS011;26687;48.254;11.454;2024-01-30T16:21:01;7.43;;;3.28;;
40955;SDS011;26687;48.254;11.454;2024-01-30T16:24:02;5.10;;;3.53;;
40955;SDS011;26687;48.254;11.454;2024-01-30T16:27:02;6.37;;;4.30;;
40955;SDS011;26687;48.254;11.454;2024-01-30T16:30:03;10.20;;;3.90;;
40955;SDS011;26687;48.254;11.454;2024-01-30T16:33:03;7.03;;;3.75;;
40955;SDS011;26687;48.254;11.454;2024-01-30T16:36:04;8.38;;;4.22;;
40955;SDS011;26687;48.254;11.454;2024-01-30T16:39:04;10.13;;;3.83;;
40955;SDS011;26687;48.254;11.454;2024-01-30T16:42:04;7.70;;;4.45;;
40955;SDS011;26687;48.254;11.454;2024-01-30T16:45:07;11.55;;;4.28;;
40955;SDS011;26687;48.254;11.454;2024-01-30T16:48:07;4.93;;;3.88;;
40955;SDS011;26687;48.254;11.454;2024-01-30T16:51:07;6.57;;;4.23;;
40955;SDS011;26687;48.254;11.454;2024-01-30T16:54:07;6.40;;;4.40;;
40955;SDS011;26687;48.254;11.454;2024-01-30T16:57:07;7.47;;;3.65;;
40955;SDS011;26687;48.254;11.454;2024-01-30T17:00:08;6.70;;;4.07;;
40955;SDS011;26687;48.254;11.454;2024-01-30T17:03:08;6.70;;;3.70;;
40955;SDS011;26687;48.254;11.454;2024-01-30T17:06:11;7.33;;;3.70;;
40955;SDS011;26687;48.254;11.454;2024-01-30T17:09:12;6.80;;;3.97;;
40955;SDS011;26687;48.254;11.454;2024-01-30T17:12:14;6.70;;;3.97;;
40955;SDS011;26687;48.254;11.454;2024-01-30T17:15:15;6.00;;;4.57;;
40955;SDS011;26687;48.254;11.454;2024-01-30T17:18:15;7.30;;;3.90;;
40955;SDS011;26687;48.254;11.454;2024-01-30T17:21:17;13.52;;;4.70;;
40955;SDS011;26687;48.254;11.454;2024-01-30T17:24:17;11.70;;;4.32;;
40955;SDS011;26687;48.254;11.454;2024-01-30T17:27:17;6.90;;;4.00;;
40955;SDS011;26687;48.254;11.454;2024-01-30T17:30:19;8.23;;;4.20;;
40955;SDS011;26687;48.254;11.454;2024-01-30T17:33:20;5.57;;;4.07;;
40955;SDS011;26687;48.254;11.454;2024-01-30T17:36:20;12.82;;;5.45;;
40955;SDS011;26687;48.254;11.454;2024-01-30T17:39:22;9.35;;;5.38;;
40955;SDS011;26687;48.254;11.454;2024-01-30T17:42:22;12.13;;;5.27;;